Time;durP1;ratioP1;P1;durP2;ratioP2;P2;SDS_P1;SDS_P2;PMS_P1;PMS_P2;Temp;Humidity;BMP_temperature;BMP_pressure;BME280_temperature;BME280_humidity;BME280_pressure;Samples;Min_cycle;Max_cycle;Signal;HPM_P1;HPM_P2
2021/04/02 00:01:19;;;;;;;5.65;2.75;;;12.20;99.90;;;;;;5020988;28;20895;-77
2021/04/02 00:03:45;;;;;;;5.10;1.90;;;12.20;99.90;;;;;;5016795;28;20070;-77
2021/04/02 00:06:11;;;;;;;4.65;2.13;;;12.00;99.90;;;;;;5016684;28;20568;-78
2021/04/02 00:08:37;;;;;;;4.90;1.88;;;12.20;99.90;;;;;;5025601;28;20512;-77
2021/04/02 00:11:06;;;;;;;5.60;1.88;;;12.20;99.90;;;;;;5033272;28;20070;-78
2021/04/02 00:13:36;;;;;;;7.43;1.83;;;12.20;99.90;;;;;;5016805;28;20106;-78
2021/04/02 00:16:03;;;;;;;6.10;2.63;;;12.10;99.90;;;;;;5016978;28;20070;-77
2021/04/02 00:18:29;;;;;;;7.80;2.10;;;12.10;99.90;;;;;;5028283;28;20094;-76
2021/04/02 00:20:56;;;;;;;2.90;1.63;;;12.10;99.90;;;;;;5046456;28;20104;-76
2021/04/02 00:23:22;;;;;;;5.70;2.15;;;11.80;99.90;;;;;;5046219;28;20093;-78
2021/04/02 00:25:48;;;;;;;3.92;2.08;;;11.70;99.90;;;;;;5023843;28;20090;-77
2021/04/02 00:28:13;;;;;;;4.57;2.22;;;11.70;99.90;;;;;;5025475;28;20556;-77
2021/04/02 00:30:47;;;;;;;3.53;1.77;;;11.60;99.90;;;;;;5017376;28;20079;-77
2021/04/02 00:33:14;;;;;;;7.18;1.85;;;11.20;99.90;;;;;;5033944;28;20074;-76
2021/04/02 00:35:41;;;;;;;6.43;1.70;;;11.50;99.90;;;;;;5028509;28;20193;-78
2021/04/02 00:38:08;;;;;;;3.92;1.77;;;11.30;99.90;;;;;;5029284;28;20116;-78
2021/04/02 00:40:41;;;;;;;5.05;2.35;;;11.50;99.90;;;;;;5013867;28;20117;-77
2021/04/02 00:43:07;;;;;;;8.00;1.80;;;11.70;99.90;;;;;;5024686;28;20082;-77
2021/04/02 00:45:33;;;;;;;2.08;1.58;;;11.70;99.90;;;;;;5034643;28;20094;-77
2021/04/02 00:47:59;;;;;;;5.22;2.13;;;11.60;99.90;;;;;;5034433;28;20081;-77
2021/04/02 00:50:53;;;;;;;3.88;2.20;;;11.30;99.90;;;;;;5021288;28;20090;-78
2021/04/02 00:53:21;;;;;;;6.55;1.90;;;11.30;99.90;;;;;;5030607;28;20077;-78
2021/04/02 00:55:48;;;;;;;3.05;1.33;;;11.20;99.90;;;;;;5021134;28;20142;-77
2021/04/02 00:58:16;;;;;;;7.75;1.83;;;11.00;99.90;;;;;;5015647;28;20154;-78
2021/04/02 01:00:42;;;;;;;4.25;1.83;;;10.80;99.90;;;;;;5019781;28;20074;-78
2021/04/02 01:03:08;;;;;;;5.05;2.17;;;10.70;99.90;;;;;;5003539;28;20078;-77
2021/04/02 01:05:40;;;;;;;5.68;1.67;;;10.90;99.90;;;;;;5023745;28;20185;-77
2021/04/02 01:08:09;;;;;;;2.65;1.50;;;11.00;99.90;;;;;;5028377;28;20152;-77
2021/04/02 01:10:35;;;;;;;8.10;1.88;;;11.00;99.90;;;;;;5026320;28;20579;-77
2021/04/02 01:13:00;;;;;;;4.18;1.70;;;10.90;99.90;;;;;;5027396;28;20582;-78
2021/04/02 01:15:42;;;;;;;5.93;1.75;;;10.80;99.90;;;;;;5018172;28;20078;-76
2021/04/02 01:18:16;;;;;;;3.65;1.85;;;10.70;99.90;;;;;;5025370;28;20070;-78
2021/04/02 01:20:44;;;;;;;3.83;1.77;;;10.90;99.90;;;;;;5024650;28;20074;-78
2021/04/02 01:23:13;;;;;;;5.75;2.47;;;10.60;99.90;;;;;;5020125;28;20161;-78
2021/04/02 01:25:58;;;;;;;4.35;1.90;;;10.40;99.90;;;;;;5029104;28;20087;-77
2021/04/02 01:28:24;;;;;;;3.13;1.80;;;10.30;99.90;;;;;;5013318;28;20102;-77
2021/04/02 01:30:50;;;;;;;6.18;2.55;;;10.30;99.90;;;;;;5025190;28;20082;-78
2021/04/02 01:33:17;;;;;;;6.13;2.65;;;10.50;99.90;;;;;;5014596;28;20110;-77
2021/04/02 01:35:44;;;;;;;4.53;1.42;;;10.40;99.90;;;;;;5015430;28;20089;-77
2021/04/02 01:38:18;;;;;;;4.03;1.63;;;10.00;99.90;;;;;;5020211;28;20424;-77
2021/04/02 01:40:48;;;;;;;4.90;1.95;;;10.00;99.90;;;;;;5015429;28;20154;-77
2021/04/02 01:43:17;;;;;;;3.85;1.77;;;10.00;99.90;;;;;;5022274;28;20093;-77
2021/04/02 01:45:45;;;;;;;4.55;2.20;;;10.00;99.90;;;;;;5025845;28;20094;-75
2021/04/02 01:48:13;;;;;;;5.57;2.08;;;9.80;99.90;;;;;;5033724;28;20571;-76
2021/04/02 01:50:43;;;;;;;3.42;2.30;;;10.10;99.90;;;;;;5027655;28;20075;-77
2021/04/02 01:53:09;;;;;;;4.13;1.77;;;9.90;99.90;;;;;;5015261;28;20079;-77
2021/04/02 01:55:37;;;;;;;3.90;2.45;;;9.70;99.90;;;;;;5013098;28;20078;-77
2021/04/02 01:58:03;;;;;;;6.38;2.78;;;9.70;99.90;;;;;;5022721;28;20086;-75
2021/04/02 02:00:39;;;;;;;4.00;1.90;;;9.90;99.90;;;;;;5016105;28;20074;-78
2021/04/02 02:03:05;;;;;;;4.47;1.83;;;10.10;99.90;;;;;;5016902;28;20078;-78
2021/04/02 02:05:32;;;;;;;4.65;2.00;;;9.90;99.90;;;;;;5020145;28;20459;-77
2021/04/02 02:07:59;;;;;;;3.75;1.88;;;9.70;99.90;;;;;;5021212;28;20428;-78
2021/04/02 02:10:26;;;;;;;2.92;1.35;;;9.40;99.90;;;;;;5020862;28;20090;-78
2021/04/02 02:12:53;;;;;;;4.18;1.77;;;9.40;99.90;;;;;;5024573;28;20105;-77
2021/04/02 02:15:19;;;;;;;5.60;1.83;;;9.50;99.90;;;;;;5028921;28;20112;-77
2021/04/02 02:18:07;;;;;;;3.28;2.20;;;9.70;99.90;;;;;;5022411;28;20074;-76
2021/04/02 02:20:37;;;;;;;9.32;3.45;;;9.50;99.90;;;;;;5013189;28;20078;-78
2021/04/02 02:23:03;;;;;;;3.55;2.45;;;9.60;99.90;;;;;;5029556;28;20070;-78
2021/04/02 02:25:30;;;;;;;4.03;1.65;;;9.30;99.90;;;;;;5013191;28;20097;-76
2021/04/02 02:27:56;;;;;;;3.63;2.30;;;9.40;99.90;;;;;;5016011;28;20116;-78
2021/04/02 02:30:30;;;;;;;7.03;2.00;;;9.20;99.90;;;;;;5013923;28;20189;-76
2021/04/02 02:32:56;;;;;;;7.93;2.33;;;9.50;99.90;;;;;;5013460;28;20128;-76
2021/04/02 02:35:22;;;;;;;9.45;3.58;;;8.90;99.90;;;;;;5013838;28;20090;-77
2021/04/02 02:37:48;;;;;;;6.60;2.90;;;8.80;99.90;;;;;;5015747;28;20114;-77
2021/04/02 02:40:26;;;;;;;5.55;2.28;;;9.20;99.90;;;;;;5016313;28;20109;-78
2021/04/02 02:42:56;;;;;;;3.45;2.33;;;9.40;99.90;;;;;;5023245;28;20085;-76
2021/04/02 02:45:22;;;;;;;5.85;2.90;;;9.60;99.90;;;;;;5017603;28;20175;-78
2021/04/02 02:47:48;;;;;;;5.93;2.45;;;9.80;99.90;;;;;;5032333;28;20078;-76
2021/04/02 02:50:19;;;;;;;5.82;2.88;;;9.80;99.90;;;;;;5026286;28;20555;-77
2021/04/02 02:52:49;;;;;;;3.67;1.90;;;9.50;99.90;;;;;;5023753;28;20542;-78
2021/04/02 02:55:18;;;;;;;4.70;2.70;;;9.10;99.90;;;;;;5023518;28;20081;-78
2021/04/02 02:57:46;;;;;;;4.68;2.28;;;9.00;99.90;;;;;;5019501;28;20104;-78
2021/04/02 03:00:15;;;;;;;5.53;2.70;;;8.90;99.90;;;;;;5017556;28;20098;-76
2021/04/02 03:02:45;;;;;;;6.50;2.33;;;8.80;99.90;;;;;;5019635;28;20089;-77
2021/04/02 03:05:15;;;;;;;4.93;2.30;;;8.70;99.90;;;;;;5018739;28;20216;-76
2021/04/02 03:07:43;;;;;;;6.90;2.72;;;8.90;99.90;;;;;;5018986;28;20083;-77
2021/04/02 03:10:10;;;;;;;4.38;2.47;;;8.60;99.90;;;;;;5016446;28;20491;-77
2021/04/02 03:12:38;;;;;;;3.92;2.13;;;8.50;99.90;;;;;;5020069;28;20070;-78
2021/04/02 03:15:06;;;;;;;6.82;3.20;;;8.60;99.90;;;;;;4996190;28;20082;-77
2021/04/02 03:17:34;;;;;;;4.28;3.00;;;8.70;99.90;;;;;;5004934;28;20556;-77
2021/04/02 03:20:01;;;;;;;6.72;3.22;;;8.60;99.90;;;;;;5010716;28;20102;-77
2021/04/02 03:22:29;;;;;;;6.93;3.03;;;8.50;99.90;;;;;;5007205;28;20162;-77
2021/04/02 03:24:58;;;;;;;4.35;2.53;;;8.30;99.90;;;;;;4994806;28;20202;-76
2021/04/02 03:27:26;;;;;;;7.78;3.33;;;8.40;99.90;;;;;;4991054;28;20083;-77
2021/04/02 03:29:52;;;;;;;10.10;3.38;;;8.20;99.90;;;;;;5001980;28;20079;-77
2021/04/02 03:32:20;;;;;;;5.20;2.97;;;8.30;99.90;;;;;;5010411;28;20614;-77
2021/04/02 03:34:47;;;;;;;7.03;4.15;;;8.30;99.90;;;;;;5005188;28;20090;-77
2021/04/02 03:37:13;;;;;;;7.85;4.18;;;8.50;99.90;;;;;;5010324;28;20105;-78
2021/04/02 03:39:43;;;;;;;6.63;4.13;;;8.30;99.90;;;;;;5011603;28;20086;-78
2021/04/02 03:42:12;;;;;;;5.85;3.55;;;8.30;99.90;;;;;;5006822;28;20077;-77
2021/04/02 03:44:41;;;;;;;7.63;4.05;;;8.50;99.90;;;;;;4993731;28;20620;-77
2021/04/02 03:47:19;;;;;;;7.45;3.20;;;8.30;99.90;;;;;;5001053;28;20079;-79
2021/04/02 03:49:47;;;;;;;7.63;3.40;;;8.10;99.90;;;;;;4994623;28;20157;-78
2021/04/02 03:52:20;;;;;;;6.72;3.58;;;7.80;99.90;;;;;;5010567;28;20101;-78
2021/04/02 03:54:50;;;;;;;5.78;3.83;;;7.80;99.90;;;;;;5003613;28;20079;-77
2021/04/02 03:57:18;;;;;;;10.13;4.25;;;8.00;99.90;;;;;;5010342;28;20078;-80
2021/04/02 03:59:47;;;;;;;9.15;3.88;;;8.30;99.90;;;;;;5012242;28;20109;-79
2021/04/02 04:02:13;;;;;;;8.55;4.38;;;8.20;99.90;;;;;;5013206;28;20075;-77
2021/04/02 04:04:40;;;;;;;8.80;3.85;;;8.30;99.90;;;;;;5005362;28;20071;-77
2021/04/02 04:07:08;;;;;;;8.20;4.95;;;8.10;99.90;;;;;;5009174;28;20078;-77
2021/04/02 04:09:36;;;;;;;15.38;5.63;;;8.20;99.90;;;;;;5008268;28;20094;-77
2021/04/02 04:12:04;;;;;;;9.60;4.32;;;8.10;99.90;;;;;;5008525;28;20560;-76
2021/04/02 04:14:30;;;;;;;8.02;4.57;;;7.90;99.90;;;;;;4993030;28;20075;-78
2021/04/02 04:16:58;;;;;;;8.77;4.97;;;8.10;99.90;;;;;;5006134;28;20132;-76
2021/04/02 04:19:25;;;;;;;10.38;4.32;;;8.00;99.90;;;;;;4999917;28;20098;-76
2021/04/02 04:21:52;;;;;;;11.35;4.57;;;7.60;99.90;;;;;;4993205;28;20541;-77
2021/04/02 04:24:22;;;;;;;11.32;5.85;;;7.70;99.90;;;;;;4995307;28;20087;-78
2021/04/02 04:26:51;;;;;;;12.65;5.80;;;7.80;99.90;;;;;;4992814;28;20468;-77
2021/04/02 04:29:20;;;;;;;8.43;5.05;;;7.90;99.90;;;;;;4992714;28;20098;-76
2021/04/02 04:31:47;;;;;;;11.65;5.47;;;8.00;99.90;;;;;;4994950;28;20088;-78
2021/04/02 04:34:14;;;;;;;9.10;4.82;;;7.70;99.90;;;;;;4992867;28;20071;-77
2021/04/02 04:36:43;;;;;;;10.20;5.18;;;7.70;99.90;;;;;;5002987;28;20094;-77
2021/04/02 04:39:09;;;;;;;13.90;6.15;;;7.50;99.90;;;;;;4996326;28;20190;-78
2021/04/02 04:41:35;;;;;;;11.05;5.75;;;7.30;99.90;;;;;;4992257;28;20589;-77
2021/04/02 04:44:03;;;;;;;10.90;6.43;;;7.20;99.90;;;;;;4993050;28;20200;-77
2021/04/02 04:46:29;;;;;;;11.18;5.90;;;7.30;99.90;;;;;;5000788;28;20094;-78
2021/04/02 04:48:56;;;;;;;13.38;6.60;;;7.20;99.90;;;;;;4994716;28;20102;-77
2021/04/02 04:51:26;;;;;;;10.00;6.28;;;7.20;99.90;;;;;;5010703;28;20079;-78
2021/04/02 04:53:55;;;;;;;10.27;6.13;;;7.20;99.90;;;;;;4999049;28;20151;-75
2021/04/02 04:56:23;;;;;;;12.15;7.43;;;7.20;99.90;;;;;;4995275;28;20082;-75
2021/04/02 04:58:51;;;;;;;14.30;7.25;;;7.20;99.90;;;;;;4996867;28;20125;-76
2021/04/02 05:01:18;;;;;;;10.40;5.97;;;7.20;99.90;;;;;;4997106;28;20113;-78
2021/04/02 05:03:44;;;;;;;9.93;5.40;;;7.20;99.90;;;;;;5004728;28;20089;-76
2021/04/02 05:06:13;;;;;;;12.52;7.32;;;7.20;99.90;;;;;;4998122;28;20105;-78
2021/04/02 05:08:45;;;;;;;16.52;8.32;;;7.20;99.90;;;;;;4995190;28;20094;-77
2021/04/02 05:11:14;;;;;;;22.20;10.82;;;7.10;99.90;;;;;;4992084;28;20100;-75
2021/04/02 05:13:41;;;;;;;17.55;9.65;;;7.20;99.90;;;;;;5007915;28;20524;-77
2021/04/02 05:16:09;;;;;;;18.15;9.93;;;7.00;99.90;;;;;;5001133;28;20078;-77
2021/04/02 05:18:35;;;;;;;15.15;8.02;;;7.20;99.90;;;;;;5006296;28;20151;-75
2021/04/02 05:21:02;;;;;;;16.38;7.35;;;7.10;99.90;;;;;;5013925;28;20091;-76
2021/04/02 05:23:27;;;;;;;22.90;11.50;;;7.20;99.90;;;;;;5007638;28;20155;-78
2021/04/02 05:25:53;;;;;;;26.35;13.70;;;7.40;99.90;;;;;;5000716;28;20593;-76
2021/04/02 05:28:19;;;;;;;18.50;9.65;;;7.40;99.90;;;;;;4997192;28;20090;-78
2021/04/02 05:30:45;;;;;;;15.15;8.30;;;7.30;99.90;;;;;;4993871;28;20161;-78
2021/04/02 05:33:12;;;;;;;18.48;9.63;;;7.20;99.90;;;;;;4991898;28;20583;-77
2021/04/02 05:35:38;;;;;;;17.77;10.05;;;7.50;99.90;;;;;;4999142;28;20094;-76
2021/04/02 05:38:03;;;;;;;24.33;10.02;;;7.50;99.90;;;;;;5005348;28;20093;-76
2021/04/02 05:40:29;;;;;;;19.40;10.43;;;7.70;99.90;;;;;;4994028;28;20914;-75
2021/04/02 05:43:19;;;;;;;21.65;11.73;;;7.80;99.90;;;;;;4992077;28;20161;-77
2021/04/02 05:45:46;;;;;;;20.05;11.50;;;7.80;99.90;;;;;;4999804;28;20099;-78
2021/04/02 05:48:14;;;;;;;25.90;14.48;;;7.90;99.90;;;;;;5008330;28;20087;-77
2021/04/02 05:50:40;;;;;;;28.58;14.50;;;8.10;99.90;;;;;;5005752;28;20078;-78
2021/04/02 05:53:08;;;;;;;26.92;14.45;;;8.00;99.90;;;;;;4998588;28;21380;-76
2021/04/02 05:55:39;;;;;;;24.08;13.38;;;8.00;99.90;;;;;;5001161;28;20117;-78
2021/04/02 05:58:06;;;;;;;24.77;13.00;;;8.10;99.90;;;;;;4997342;28;20440;-77
2021/04/02 06:00:33;;;;;;;35.83;21.77;;;8.00;99.90;;;;;;5001315;28;20157;-76
2021/04/02 06:02:58;;;;;;;40.47;22.67;;;7.80;99.90;;;;;;4992093;28;20487;-76
2021/04/02 06:05:25;;;;;;;44.38;24.05;;;7.60;99.90;;;;;;4989127;28;20099;-76
2021/04/02 06:07:53;;;;;;;47.35;26.40;;;7.70;99.90;;;;;;5006714;28;20075;-76
2021/04/02 06:10:19;;;;;;;41.53;25.17;;;7.70;99.90;;;;;;4992489;28;20532;-76
2021/04/02 06:12:44;;;;;;;46.08;24.83;;;7.70;99.90;;;;;;4999350;28;20082;-75
2021/04/02 06:15:10;;;;;;;36.22;23.38;;;7.90;99.90;;;;;;4993585;28;20105;-74
2021/04/02 06:18:11;;;;;;;41.42;22.55;;;7.80;99.90;;;;;;5008533;28;20095;-75
2021/04/02 06:20:38;;;;;;;38.78;22.50;;;7.80;99.90;;;;;;5004397;28;20079;-76
2021/04/02 06:23:17;;;;;;;35.28;21.65;;;8.00;99.90;;;;;;4994229;28;20082;-76
2021/04/02 06:25:53;;;;;;;36.17;21.52;;;8.00;99.90;;;;;;5005985;28;20086;-76
2021/04/02 06:28:21;;;;;;;37.00;22.65;;;8.00;99.90;;;;;;4999317;28;20475;-77
2021/04/02 06:30:59;;;;;;;34.35;20.50;;;7.90;99.90;;;;;;4998446;28;20117;-77
2021/04/02 06:33:41;;;;;;;37.03;20.95;;;8.00;99.90;;;;;;4996972;28;20074;-77
2021/04/02 06:36:14;;;;;;;33.35;19.77;;;7.90;99.90;;;;;;5003105;28;20448;-76
2021/04/02 06:39:02;;;;;;;35.35;18.38;;;7.90;99.90;;;;;;5003495;28;20094;-77
2021/04/02 06:41:28;;;;;;;23.33;15.18;;;8.00;99.90;;;;;;4997734;28;20133;-76
2021/04/02 06:44:00;;;;;;;24.48;15.40;;;7.80;99.90;;;;;;4997237;28;20399;-76
2021/04/02 06:46:28;;;;;;;20.50;12.88;;;7.90;99.90;;;;;;5000334;28;20094;-79
2021/04/02 06:48:55;;;;;;;16.85;11.82;;;7.90;99.90;;;;;;5003673;28;20101;-76
2021/04/02 06:51:23;;;;;;;17.98;12.45;;;7.90;99.90;;;;;;5008885;28;20083;-78
2021/04/02 06:53:53;;;;;;;21.13;13.13;;;8.00;99.90;;;;;;5002374;28;20514;-77
2021/04/02 06:56:22;;;;;;;22.17;12.43;;;8.00;99.90;;;;;;5003315;28;20087;-76
2021/04/02 06:58:51;;;;;;;20.02;12.70;;;8.20;99.90;;;;;;4996760;28;20106;-77
2021/04/02 07:01:17;;;;;;;23.52;13.52;;;8.20;99.90;;;;;;4999068;28;20673;-77
2021/04/02 07:03:44;;;;;;;19.55;12.10;;;7.90;99.90;;;;;;5002246;28;20133;-78
2021/04/02 07:06:11;;;;;;;22.63;14.10;;;8.00;99.90;;;;;;4991923;28;20095;-76
2021/04/02 07:08:41;;;;;;;21.80;14.10;;;8.00;99.90;;;;;;4999739;28;20094;-76
2021/04/02 07:11:10;;;;;;;21.10;13.90;;;8.30;99.90;;;;;;4997557;28;20091;-77
2021/04/02 07:13:43;;;;;;;23.17;14.10;;;8.10;99.90;;;;;;5006739;28;20082;-76
2021/04/02 07:16:10;;;;;;;26.58;13.90;;;8.00;99.90;;;;;;4998163;28;20079;-76
2021/04/02 07:18:37;;;;;;;24.33;14.48;;;8.20;99.90;;;;;;5006306;28;20091;-76
2021/04/02 07:21:05;;;;;;;24.50;15.68;;;8.20;99.90;;;;;;5004234;28;20536;-76
2021/04/02 07:23:32;;;;;;;27.17;16.30;;;8.40;99.90;;;;;;5008125;28;20079;-76
2021/04/02 07:25:58;;;;;;;22.15;14.57;;;8.50;99.90;;;;;;5003790;28;20090;-77
2021/04/02 07:28:26;;;;;;;23.90;15.00;;;8.50;99.90;;;;;;5012309;28;20102;-77
2021/04/02 07:30:53;;;;;;;21.73;14.10;;;8.30;99.90;;;;;;5002680;28;20158;-75
2021/04/02 07:33:21;;;;;;;22.45;14.00;;;8.30;99.90;;;;;;5011906;28;20576;-77
2021/04/02 07:36:01;;;;;;;19.42;12.48;;;8.60;99.90;;;;;;5009285;28;20078;-77
2021/04/02 07:38:29;;;;;;;22.95;13.38;;;8.80;99.90;;;;;;5012166;28;20153;-78
2021/04/02 07:40:55;;;;;;;18.65;11.27;;;8.60;99.90;;;;;;5011947;28;20082;-78
2021/04/02 07:43:27;;;;;;;16.08;10.73;;;8.60;99.90;;;;;;5021679;28;20101;-78
2021/04/02 07:46:10;;;;;;;18.48;11.02;;;8.70;99.90;;;;;;5024215;28;20082;-78
2021/04/02 07:48:36;;;;;;;15.98;10.43;;;8.40;99.90;;;;;;5020912;28;20140;-79
2021/04/02 07:51:02;;;;;;;16.52;11.20;;;8.50;99.90;;;;;;5006240;28;20075;-79
2021/04/02 07:53:28;;;;;;;16.40;10.25;;;8.70;99.90;;;;;;5005273;28;20082;-80
2021/04/02 07:56:10;;;;;;;15.68;10.07;;;8.70;99.90;;;;;;5009253;28;20093;-80
2021/04/02 07:58:46;;;;;;;14.95;9.45;;;8.50;99.90;;;;;;5000069;28;20093;-80
2021/04/02 08:01:12;;;;;;;13.70;9.30;;;8.50;99.90;;;;;;5018368;28;20154;-77
2021/04/02 08:03:38;;;;;;;13.20;9.35;;;8.60;99.90;;;;;;4995994;28;20079;-78
2021/04/02 08:06:07;;;;;;;13.20;9.35;;;8.40;99.90;;;;;;5001723;28;20184;-78
2021/04/02 08:08:47;;;;;;;13.23;9.63;;;8.50;99.90;;;;;;5003721;28;20086;-78
2021/04/02 08:11:26;;;;;;;16.10;10.02;;;8.40;99.90;;;;;;5000617;28;20170;-76
2021/04/02 08:14:08;;;;;;;12.85;9.52;;;8.40;99.90;;;;;;5005604;28;20144;-78
2021/04/02 08:16:46;;;;;;;11.18;8.77;;;8.60;99.90;;;;;;5000581;28;20165;-77
2021/04/02 08:19:31;;;;;;;13.88;9.18;;;8.50;99.90;;;;;;5004657;28;20086;-78
2021/04/02 08:22:08;;;;;;;17.85;11.30;;;8.70;99.90;;;;;;4994174;28;20085;-77
2021/04/02 08:24:37;;;;;;;13.57;10.00;;;8.60;99.90;;;;;;4993216;28;20632;-78
2021/04/02 08:27:05;;;;;;;10.52;8.13;;;8.80;99.90;;;;;;5003063;28;20130;-78
2021/04/02 08:29:31;;;;;;;13.02;8.98;;;8.80;99.90;;;;;;4994478;28;20170;-77
2021/04/02 08:32:01;;;;;;;14.75;10.27;;;8.90;99.90;;;;;;5003022;28;20083;-79
2021/04/02 08:34:28;;;;;;;16.45;10.98;;;8.60;99.90;;;;;;5001959;28;20125;-78
2021/04/02 08:36:59;;;;;;;14.63;9.77;;;8.60;99.90;;;;;;4999843;28;20615;-79
2021/04/02 08:39:25;;;;;;;15.90;10.20;;;8.70;99.90;;;;;;5001402;28;20097;-79
2021/04/02 08:41:56;;;;;;;17.35;10.68;;;8.60;99.90;;;;;;5003399;28;20070;-77
2021/04/02 08:44:42;;;;;;;12.30;9.10;;;8.50;99.90;;;;;;5006332;28;20082;-78
2021/04/02 08:47:10;;;;;;;15.43;9.10;;;8.60;99.90;;;;;;5015526;28;20556;-77
2021/04/02 08:49:42;;;;;;;12.23;9.02;;;8.40;99.90;;;;;;5011118;28;20154;-78
2021/04/02 08:52:10;;;;;;;11.93;9.45;;;8.50;99.90;;;;;;5009557;28;20086;-78
2021/04/02 08:54:36;;;;;;;12.90;9.45;;;8.60;99.90;;;;;;5009931;28;20082;-78
2021/04/02 08:57:04;;;;;;;12.13;8.77;;;8.40;99.90;;;;;;5003844;28;20082;-78
2021/04/02 08:59:35;;;;;;;14.15;9.85;;;8.50;99.90;;;;;;5011714;28;20173;-79
2021/04/02 09:02:00;;;;;;;15.00;9.45;;;8.50;99.90;;;;;;5003468;28;20597;-78
2021/04/02 09:04:28;;;;;;;12.35;8.95;;;8.50;99.90;;;;;;5000943;28;20544;-79
2021/04/02 09:06:54;;;;;;;15.68;10.57;;;8.70;99.90;;;;;;5009684;28;20087;-79
2021/04/02 09:09:22;;;;;;;12.52;9.23;;;8.70;99.90;;;;;;5006376;28;20083;-80
2021/04/02 09:11:52;;;;;;;13.73;9.48;;;8.60;99.90;;;;;;5004297;28;20452;-79
2021/04/02 09:14:18;;;;;;;13.65;9.68;;;8.60;99.90;;;;;;4992047;28;20121;-80
2021/04/02 09:16:46;;;;;;;13.90;8.77;;;8.90;99.90;;;;;;5011099;28;20101;-79
2021/04/02 09:19:14;;;;;;;12.32;8.98;;;9.00;99.90;;;;;;5011130;28;20098;-81
2021/04/02 09:21:40;;;;;;;12.02;9.07;;;9.00;99.90;;;;;;5001268;28;20417;-80
2021/04/02 09:24:06;;;;;;;13.23;9.57;;;8.70;99.90;;;;;;5012154;28;20545;-78
2021/04/02 09:26:38;;;;;;;14.70;9.35;;;8.90;99.90;;;;;;5006230;28;20098;-77
2021/04/02 09:29:04;;;;;;;16.15;10.18;;;8.80;99.90;;;;;;5006826;28;20683;-78
2021/04/02 09:31:33;;;;;;;17.50;10.27;;;8.80;99.90;;;;;;5010505;28;20113;-78
2021/04/02 09:34:01;;;;;;;15.38;10.15;;;8.80;99.90;;;;;;5001437;28;20158;-78
2021/04/02 09:36:32;;;;;;;18.90;10.65;;;9.00;99.90;;;;;;5010251;28;20082;-77
2021/04/02 09:39:13;;;;;;;17.70;10.38;;;9.20;99.90;;;;;;4991237;28;20480;-78
2021/04/02 09:41:42;;;;;;;13.93;9.68;;;9.20;99.90;;;;;;4994130;28;20121;-77
2021/04/02 09:44:10;;;;;;;15.73;10.52;;;8.90;99.90;;;;;;5005478;28;20075;-77
2021/04/02 09:46:41;;;;;;;15.60;10.20;;;9.10;99.90;;;;;;4996293;28;20122;-78
2021/04/02 09:49:12;;;;;;;15.35;10.23;;;9.00;99.90;;;;;;5007871;28;20121;-77
2021/04/02 09:51:41;;;;;;;15.43;10.40;;;8.80;99.90;;;;;;5004457;28;20142;-77
2021/04/02 09:54:08;;;;;;;13.10;10.10;;;9.00;99.90;;;;;;5014239;28;20062;-77
2021/04/02 09:56:34;;;;;;;13.68;9.88;;;9.10;99.90;;;;;;5006401;28;20098;-77
2021/04/02 09:59:00;;;;;;;13.95;10.25;;;9.00;99.90;;;;;;5006479;28;20569;-77
2021/04/02 10:01:25;;;;;;;15.57;10.75;;;9.30;99.90;;;;;;4994952;28;20075;-78
2021/04/02 10:03:51;;;;;;;17.48;11.40;;;9.40;99.90;;;;;;5004198;28;20112;-78
2021/04/02 10:06:18;;;;;;;14.90;10.80;;;9.30;99.90;;;;;;5022122;28;20092;-79
2021/04/02 10:08:44;;;;;;;14.63;10.23;;;9.60;99.90;;;;;;5009322;28;20095;-79
2021/04/02 10:11:10;;;;;;;16.88;11.02;;;9.60;99.90;;;;;;5009028;28;20089;-78
2021/04/02 10:13:35;;;;;;;16.38;10.93;;;9.70;99.90;;;;;;4997000;28;20925;-78
2021/04/02 10:16:01;;;;;;;19.33;12.27;;;9.70;99.90;;;;;;5011703;28;20086;-78
2021/04/02 10:18:28;;;;;;;23.70;11.93;;;9.80;99.90;;;;;;5022466;28;20091;-78
2021/04/02 10:20:55;;;;;;;16.05;12.05;;;9.80;99.90;;;;;;5005976;28;20086;-78
2021/04/02 10:23:21;;;;;;;17.27;11.90;;;9.80;99.90;;;;;;5013163;28;20607;-79
2021/04/02 10:25:46;;;;;;;18.23;11.55;;;9.70;99.90;;;;;;5011316;28;20090;-78
2021/04/02 10:28:12;;;;;;;18.50;12.43;;;9.80;99.90;;;;;;5015255;28;20554;-79
2021/04/02 10:30:37;;;;;;;18.63;12.50;;;10.00;99.90;;;;;;5007816;28;20102;-79
2021/04/02 10:33:03;;;;;;;16.10;10.80;;;10.10;99.90;;;;;;4995281;28;20082;-78
2021/04/02 10:35:31;;;;;;;19.02;12.93;;;10.00;99.90;;;;;;4995020;28;20079;-79
2021/04/02 10:37:57;;;;;;;18.75;12.40;;;10.20;99.90;;;;;;4995207;28;20078;-79
2021/04/02 10:40:22;;;;;;;19.35;11.90;;;10.30;99.90;;;;;;5012479;28;20112;-79
2021/04/02 10:42:49;;;;;;;20.90;13.05;;;10.40;99.90;;;;;;5009338;28;20090;-79
2021/04/02 10:45:15;;;;;;;20.27;13.05;;;10.60;99.90;;;;;;5004450;28;20090;-78
2021/04/02 10:47:40;;;;;;;20.63;13.02;;;10.90;99.90;;;;;;5004969;28;20202;-79
2021/04/02 10:50:06;;;;;;;16.92;12.07;;;10.60;99.90;;;;;;5007355;28;20468;-80
2021/04/02 10:52:32;;;;;;;23.33;14.65;;;10.70;99.90;;;;;;5013773;28;20137;-78
2021/04/02 10:54:58;;;;;;;20.85;13.52;;;11.00;99.90;;;;;;5012978;28;20103;-76
2021/04/02 10:57:24;;;;;;;21.52;14.10;;;10.90;99.90;;;;;;5009654;28;20082;-76
2021/04/02 10:59:49;;;;;;;19.00;13.52;;;10.90;99.90;;;;;;5008131;28;20094;-77
2021/04/02 11:02:15;;;;;;;16.25;11.77;;;11.10;99.90;;;;;;5008921;28;20078;-78
2021/04/02 11:04:40;;;;;;;18.83;12.43;;;11.00;99.90;;;;;;5006674;28;20082;-77
2021/04/02 11:07:09;;;;;;;18.05;11.93;;;10.70;99.90;;;;;;4993906;28;20450;-78
2021/04/02 11:09:35;;;;;;;16.27;11.70;;;10.90;99.90;;;;;;4991134;28;20090;-78
2021/04/02 11:12:01;;;;;;;16.30;11.50;;;10.90;99.90;;;;;;5000393;28;20078;-77
2021/04/02 11:14:27;;;;;;;18.30;12.52;;;11.10;99.90;;;;;;5004993;28;20140;-78
2021/04/02 11:16:52;;;;;;;17.23;11.40;;;11.10;99.90;;;;;;5010579;28;20108;-80
2021/04/02 11:19:18;;;;;;;18.35;13.05;;;11.10;99.90;;;;;;4994825;28;20095;-77
2021/04/02 11:21:43;;;;;;;17.08;11.95;;;10.90;99.90;;;;;;5001681;28;20077;-78
2021/04/02 11:24:09;;;;;;;16.60;12.60;;;11.00;99.90;;;;;;5010226;28;20136;-78
2021/04/02 11:26:35;;;;;;;19.38;12.73;;;11.20;99.90;;;;;;5002653;28;20083;-77
2021/04/02 11:29:01;;;;;;;18.10;12.20;;;11.30;99.90;;;;;;5009830;28;20098;-77
2021/04/02 11:31:26;;;;;;;19.55;13.25;;;11.50;99.90;;;;;;4995071;28;20086;-77
2021/04/02 11:33:52;;;;;;;19.25;12.23;;;11.60;99.90;;;;;;4999939;28;20483;-77
2021/04/02 11:36:18;;;;;;;20.48;12.77;;;11.60;99.90;;;;;;4993672;28;20136;-77
2021/04/02 11:38:43;;;;;;;16.77;12.07;;;11.60;99.90;;;;;;5006059;28;20180;-77
2021/04/02 11:41:10;;;;;;;19.85;13.45;;;11.60;99.90;;;;;;4995539;28;20429;-77
2021/04/02 11:43:35;;;;;;;18.05;12.30;;;11.90;99.90;;;;;;5009228;28;20074;-77
2021/04/02 11:46:02;;;;;;;15.27;11.18;;;11.90;99.90;;;;;;5005548;28;20093;-77
2021/04/02 11:48:27;;;;;;;16.60;12.13;;;11.70;99.90;;;;;;5007643;28;20090;-76
2021/04/02 11:50:53;;;;;;;21.10;12.32;;;11.60;99.90;;;;;;5000319;28;20556;-77
2021/04/02 11:53:19;;;;;;;21.60;13.77;;;11.60;99.90;;;;;;5004501;28;20078;-77
2021/04/02 11:55:44;;;;;;;17.73;13.15;;;11.70;99.90;;;;;;5009684;28;20565;-77
2021/04/02 11:58:10;;;;;;;20.73;12.70;;;11.60;99.90;;;;;;5009863;28;20081;-76
2021/04/02 12:00:36;;;;;;;16.83;12.43;;;11.60;99.90;;;;;;5010526;28;20160;-76
2021/04/02 12:03:05;;;;;;;17.83;11.68;;;11.90;99.90;;;;;;5007509;28;20165;-76
2021/04/02 12:05:31;;;;;;;20.20;12.60;;;12.10;99.90;;;;;;4990661;28;20446;-76
2021/04/02 12:07:57;;;;;;;17.58;12.07;;;12.00;99.90;;;;;;4991145;28;20086;-76
2021/04/02 12:10:23;;;;;;;18.05;11.55;;;12.10;99.90;;;;;;4992017;28;20488;-77
2021/04/02 12:12:49;;;;;;;17.98;11.73;;;12.10;99.90;;;;;;4990710;28;20067;-77
2021/04/02 12:15:15;;;;;;;17.77;12.13;;;12.30;99.90;;;;;;4992154;28;20071;-76
2021/04/02 12:17:41;;;;;;;17.85;11.10;;;12.50;99.90;;;;;;4999849;28;20089;-76
2021/04/02 12:20:10;;;;;;;17.58;11.50;;;12.60;99.90;;;;;;4989828;28;20726;-76
2021/04/02 12:22:36;;;;;;;16.02;11.18;;;12.30;99.90;;;;;;4994521;28;20074;-76
2021/04/02 12:25:04;;;;;;;14.85;10.68;;;12.30;99.90;;;;;;4993347;28;20083;-76
2021/04/02 12:27:29;;;;;;;17.80;10.70;;;12.50;99.90;;;;;;4992780;28;20079;-75
2021/04/02 12:29:55;;;;;;;14.20;10.57;;;12.30;99.90;;;;;;5002575;28;20098;-76
2021/04/02 12:32:22;;;;;;;14.88;10.52;;;12.30;99.90;;;;;;5011481;28;20063;-76
2021/04/02 12:34:48;;;;;;;13.52;9.63;;;12.20;99.90;;;;;;5009279;28;20456;-76
2021/04/02 12:37:13;;;;;;;24.30;10.95;;;12.40;99.90;;;;;;5004817;28;20074;-76
2021/04/02 12:39:39;;;;;;;15.43;11.15;;;12.30;99.90;;;;;;5003698;28;20102;-77
2021/04/02 12:42:05;;;;;;;16.77;10.55;;;12.00;99.90;;;;;;5009799;28;20078;-78
2021/04/02 12:44:30;;;;;;;15.13;11.32;;;12.20;99.90;;;;;;5011182;28;20071;-77
2021/04/02 12:46:56;;;;;;;15.48;10.40;;;12.20;99.90;;;;;;5009095;28;20487;-77
2021/04/02 12:49:21;;;;;;;16.30;11.60;;;11.90;99.90;;;;;;5004338;28;20177;-77